Time;durP1;ratioP1;P1;durP2;ratioP2;P2;SDS_P1;SDS_P2;PMS_P1;PMS_P2;Temp;Humidity;BMP_temperature;BMP_pressure;BME280_temperature;BME280_humidity;BME280_pressure;Samples;Min_cycle;Max_cycle;Signal;HPM_P1;HPM_P2
2021/10/23 00:00:28;;;;;;;7.40;4.30;;;7.00;99.90;;;;;;5056721;28;20021;-81
2021/10/23 00:02:54;;;;;;;6.53;4.35;;;7.10;99.90;;;;;;5075120;28;20036;-77
2021/10/23 00:05:19;;;;;;;8.82;4.20;;;7.10;99.90;;;;;;5057241;28;20115;-80
2021/10/23 00:07:45;;;;;;;4.97;3.63;;;7.10;99.90;;;;;;5074631;28;20469;-77
2021/10/23 00:10:11;;;;;;;6.80;4.25;;;7.10;99.90;;;;;;5074670;28;20384;-77
2021/10/23 00:12:37;;;;;;;6.53;3.95;;;7.10;99.90;;;;;;5074591;28;20457;-77
2021/10/23 00:15:04;;;;;;;5.82;3.58;;;7.20;99.90;;;;;;5056363;28;20024;-77
2021/10/23 00:17:29;;;;;;;5.43;3.78;;;7.20;99.90;;;;;;5074957;28;20024;-81
2021/10/23 00:20:00;;;;;;;7.35;4.55;;;7.20;99.90;;;;;;5057387;28;20564;-79
2021/10/23 00:22:25;;;;;;;6.72;4.10;;;7.20;99.90;;;;;;5056078;28;20070;-78
2021/10/23 00:24:51;;;;;;;5.82;3.50;;;7.20;99.90;;;;;;5056943;28;20028;-81
2021/10/23 00:27:17;;;;;;;5.97;3.67;;;7.20;99.90;;;;;;5055754;28;20017;-82
2021/10/23 00:29:42;;;;;;;4.70;3.90;;;7.30;99.90;;;;;;5074732;28;20048;-78
2021/10/23 00:32:08;;;;;;;7.43;4.35;;;7.30;99.90;;;;;;5056452;28;20033;-77
2021/10/23 00:34:33;;;;;;;6.00;4.07;;;7.30;99.90;;;;;;5055810;28;20029;-77
2021/10/23 00:36:59;;;;;;;7.38;3.95;;;7.30;99.90;;;;;;5056695;28;20115;-78
2021/10/23 00:39:25;;;;;;;6.18;4.30;;;7.40;99.90;;;;;;5056569;28;20025;-78
2021/10/23 00:41:51;;;;;;;7.50;4.10;;;7.30;99.90;;;;;;5055859;28;20028;-77
2021/10/23 00:44:38;;;;;;;5.47;3.75;;;7.40;99.90;;;;;;5056091;28;20129;-79
2021/10/23 00:47:13;;;;;;;5.28;4.07;;;7.40;99.90;;;;;;5056346;28;20021;-77
2021/10/23 00:49:39;;;;;;;6.95;4.65;;;7.30;99.90;;;;;;5073725;28;20025;-78
2021/10/23 00:52:07;;;;;;;6.15;4.07;;;7.30;99.90;;;;;;5056196;28;20024;-78
2021/10/23 00:54:34;;;;;;;7.50;5.13;;;7.30;99.90;;;;;;5056020;28;20048;-78
2021/10/23 00:57:01;;;;;;;8.10;4.72;;;7.30;99.90;;;;;;5064303;28;20384;-77
2021/10/23 00:59:27;;;;;;;7.22;4.20;;;7.30;99.90;;;;;;5076406;28;20032;-79
2021/10/23 01:01:53;;;;;;;9.05;5.07;;;7.30;99.90;;;;;;5075952;28;20020;-78
2021/10/23 01:04:21;;;;;;;7.82;4.55;;;7.30;99.90;;;;;;5093055;28;20032;-77
2021/10/23 01:06:48;;;;;;;10.32;5.13;;;7.30;99.90;;;;;;5076334;28;20028;-76
2021/10/23 01:09:15;;;;;;;9.85;4.30;;;7.20;99.90;;;;;;5093770;28;20031;-75
2021/10/23 01:11:42;;;;;;;7.55;4.50;;;7.30;99.90;;;;;;5093561;28;20472;-75
2021/10/23 01:14:21;;;;;;;6.40;4.60;;;7.30;99.90;;;;;;5093683;28;20103;-75
2021/10/23 01:16:49;;;;;;;6.50;4.53;;;7.20;99.90;;;;;;5070914;28;20028;-76
2021/10/23 01:19:14;;;;;;;6.15;4.40;;;7.20;99.90;;;;;;5075439;28;20021;-76
2021/10/23 01:21:42;;;;;;;6.47;4.10;;;7.20;99.90;;;;;;5075850;28;20023;-75
2021/10/23 01:24:08;;;;;;;5.70;4.00;;;7.20;99.90;;;;;;5092706;28;20036;-77
2021/10/23 01:26:36;;;;;;;6.38;4.50;;;7.10;99.90;;;;;;5075665;28;20484;-75
2021/10/23 01:29:02;;;;;;;6.28;4.00;;;7.10;99.90;;;;;;5075196;28;20071;-76
2021/10/23 01:31:29;;;;;;;5.43;4.32;;;7.00;99.90;;;;;;5075054;28;20365;-75
2021/10/23 01:33:56;;;;;;;5.88;4.32;;;7.00;99.90;;;;;;5075502;28;20035;-77
2021/10/23 01:36:22;;;;;;;7.78;4.50;;;7.00;99.90;;;;;;5075902;28;20027;-77
2021/10/23 01:38:48;;;;;;;8.45;4.25;;;7.00;99.90;;;;;;5074667;28;20031;-78
2021/10/23 01:41:14;;;;;;;7.03;4.00;;;6.90;99.90;;;;;;5075298;28;20368;-77
2021/10/23 01:43:40;;;;;;;5.78;3.97;;;6.90;99.90;;;;;;5075175;28;20028;-77
2021/10/23 01:46:07;;;;;;;5.97;4.50;;;6.90;99.90;;;;;;5073833;28;20028;-77
2021/10/23 01:48:37;;;;;;;6.00;4.20;;;6.90;99.90;;;;;;5093436;28;20069;-78
2021/10/23 01:51:03;;;;;;;6.53;4.07;;;6.90;99.90;;;;;;5074855;28;20112;-76
2021/10/23 01:53:32;;;;;;;7.65;3.88;;;6.80;99.90;;;;;;5074321;28;20027;-78
2021/10/23 01:56:00;;;;;;;7.18;4.30;;;6.90;99.90;;;;;;5074735;28;20024;-78
2021/10/23 01:58:25;;;;;;;6.25;3.60;;;6.80;99.90;;;;;;5093306;28;20016;-77
2021/10/23 02:00:51;;;;;;;5.45;3.40;;;6.80;99.90;;;;;;5074381;28;20012;-76
2021/10/23 02:03:16;;;;;;;7.85;4.22;;;6.80;99.90;;;;;;5074689;28;20020;-77
2021/10/23 02:05:42;;;;;;;6.45;3.97;;;6.70;99.90;;;;;;5074143;28;20055;-76
2021/10/23 02:08:07;;;;;;;8.25;4.28;;;6.70;99.90;;;;;;5092955;28;20025;-77
2021/10/23 02:10:33;;;;;;;11.27;4.82;;;6.70;99.90;;;;;;5093330;28;20095;-79
2021/10/23 02:12:59;;;;;;;6.75;3.92;;;6.70;99.90;;;;;;5092129;28;20027;-77
2021/10/23 02:15:25;;;;;;;4.20;3.40;;;6.70;99.90;;;;;;5092790;28;20067;-81
2021/10/23 02:17:51;;;;;;;5.57;3.47;;;6.60;99.90;;;;;;5092939;28;20028;-81
2021/10/23 02:20:17;;;;;;;4.85;3.80;;;6.60;99.90;;;;;;5073871;28;20035;-79
2021/10/23 02:22:43;;;;;;;5.20;3.35;;;6.60;99.90;;;;;;5074634;28;20024;-76
2021/10/23 02:25:10;;;;;;;5.15;3.40;;;6.50;99.90;;;;;;5092690;28;20028;-82
2021/10/23 02:27:36;;;;;;;5.28;3.40;;;6.50;99.90;;;;;;5074090;28;20503;-77
2021/10/23 02:30:05;;;;;;;3.67;3.25;;;6.50;99.90;;;;;;5092541;28;20067;-78
2021/10/23 02:32:31;;;;;;;4.75;3.03;;;6.50;99.90;;;;;;5092731;28;20065;-76
2021/10/23 02:34:56;;;;;;;7.28;3.80;;;6.50;99.90;;;;;;5091908;28;20016;-79
2021/10/23 02:37:22;;;;;;;3.97;3.35;;;6.50;99.90;;;;;;5074723;28;20409;-78
2021/10/23 02:39:47;;;;;;;5.00;3.92;;;6.50;99.90;;;;;;5071838;28;20070;-79
2021/10/23 02:42:13;;;;;;;5.13;3.50;;;6.60;99.90;;;;;;5074575;28;20027;-77
2021/10/23 02:44:39;;;;;;;4.32;3.33;;;6.60;99.90;;;;;;5074683;28;20426;-78
2021/10/23 02:47:04;;;;;;;8.80;4.43;;;6.70;99.90;;;;;;5091726;28;20031;-76
2021/10/23 02:49:30;;;;;;;6.85;3.28;;;6.70;99.90;;;;;;5092809;28;20020;-76
2021/10/23 02:51:56;;;;;;;4.50;3.60;;;6.70;99.90;;;;;;5074282;28;20088;-76
2021/10/23 02:54:21;;;;;;;5.00;3.72;;;6.70;99.90;;;;;;5073516;28;20136;-79
2021/10/23 02:56:47;;;;;;;3.88;3.15;;;6.70;99.90;;;;;;5077457;28;20049;-78
2021/10/23 02:59:13;;;;;;;6.43;3.40;;;6.70;99.90;;;;;;5078455;28;20055;-76
2021/10/23 03:01:38;;;;;;;7.22;3.60;;;6.70;99.90;;;;;;5077949;28;20046;-76
2021/10/23 03:04:05;;;;;;;3.90;3.45;;;6.70;99.90;;;;;;5096210;28;20032;-77
2021/10/23 03:06:31;;;;;;;3.65;3.33;;;6.70;99.90;;;;;;5096627;28;20027;-76
2021/10/23 03:08:56;;;;;;;5.43;3.90;;;6.70;99.90;;;;;;5077217;28;20020;-77
2021/10/23 03:11:22;;;;;;;5.13;3.65;;;6.80;99.90;;;;;;5096581;28;20456;-76
2021/10/23 03:13:48;;;;;;;4.57;3.28;;;6.80;99.90;;;;;;5078138;28;20108;-75
2021/10/23 03:16:13;;;;;;;4.07;3.67;;;6.70;99.90;;;;;;5077424;28;20119;-75
2021/10/23 03:18:39;;;;;;;5.10;3.40;;;6.70;99.90;;;;;;5078167;28;20020;-75
2021/10/23 03:21:06;;;;;;;3.88;3.42;;;6.70;99.90;;;;;;5077802;28;20028;-75
2021/10/23 03:23:32;;;;;;;4.65;3.50;;;6.70;99.90;;;;;;5077313;28;20031;-75
2021/10/23 03:25:57;;;;;;;4.05;3.40;;;6.70;99.90;;;;;;5095986;28;20099;-75
2021/10/23 03:28:23;;;;;;;4.05;3.10;;;6.60;99.90;;;;;;5076983;28;20048;-75
2021/10/23 03:30:48;;;;;;;4.18;3.60;;;6.70;99.90;;;;;;5096268;28;20031;-75
2021/10/23 03:33:14;;;;;;;4.45;3.40;;;6.70;99.90;;;;;;5095698;28;20065;-75
2021/10/23 03:35:40;;;;;;;3.80;3.38;;;6.70;99.90;;;;;;5077193;28;20107;-74
2021/10/23 03:38:06;;;;;;;3.90;3.33;;;6.70;99.90;;;;;;5077569;28;20012;-75
2021/10/23 03:40:32;;;;;;;3.15;2.85;;;6.70;99.90;;;;;;5095626;28;20042;-75
2021/10/23 03:42:58;;;;;;;3.38;3.08;;;6.70;99.90;;;;;;5094678;28;20028;-76
2021/10/23 03:45:23;;;;;;;5.47;3.72;;;6.70;99.90;;;;;;5077943;28;20024;-75
2021/10/23 03:47:49;;;;;;;5.35;3.60;;;6.70;99.90;;;;;;5077694;28;20055;-82
2021/10/23 03:50:14;;;;;;;5.07;3.85;;;6.60;99.90;;;;;;5076722;28;20035;-77
2021/10/23 03:52:40;;;;;;;3.83;3.40;;;6.60;99.90;;;;;;5077619;28;20020;-80
2021/10/23 03:55:06;;;;;;;7.95;3.85;;;6.50;99.90;;;;;;5095400;28;20380;-77
2021/10/23 03:57:32;;;;;;;4.55;3.60;;;6.50;99.90;;;;;;5077005;28;20028;-80
2021/10/23 03:59:57;;;;;;;5.82;4.20;;;6.40;99.90;;;;;;5077311;28;20023;-76
2021/10/23 04:02:23;;;;;;;4.57;3.40;;;6.40;99.90;;;;;;5095601;28;20028;-79
2021/10/23 04:04:49;;;;;;;6.57;3.80;;;6.40;99.90;;;;;;5076611;28;20047;-78
2021/10/23 04:07:15;;;;;;;4.10;3.70;;;6.30;99.90;;;;;;5094279;28;20032;-78
2021/10/23 04:09:40;;;;;;;5.32;3.50;;;6.30;99.90;;;;;;5077393;28;20024;-77
2021/10/23 04:12:06;;;;;;;5.68;3.72;;;6.30;99.90;;;;;;5094319;28;20610;-79
2021/10/23 04:14:31;;;;;;;5.63;4.32;;;6.20;99.90;;;;;;5076934;28;20028;-80
2021/10/23 04:16:57;;;;;;;6.20;4.18;;;6.20;99.90;;;;;;5077189;28;20024;-76
2021/10/23 04:19:23;;;;;;;6.07;3.88;;;6.20;99.90;;;;;;5076429;28;20020;-76
2021/10/23 04:21:48;;;;;;;7.55;3.90;;;6.20;99.90;;;;;;5094934;28;20074;-76
2021/10/23 04:24:14;;;;;;;7.07;4.55;;;6.10;99.90;;;;;;5076486;28;20032;-77
2021/10/23 04:26:39;;;;;;;6.53;4.78;;;6.10;99.90;;;;;;5094282;28;20024;-76
2021/10/23 04:29:06;;;;;;;6.15;4.90;;;6.20;99.90;;;;;;5076604;28;20185;-75
2021/10/23 04:31:32;;;;;;;7.05;3.90;;;6.10;99.90;;;;;;5076487;28;20027;-80
2021/10/23 04:33:59;;;;;;;5.95;4.03;;;6.20;99.90;;;;;;5076536;28;20020;-77
2021/10/23 04:36:25;;;;;;;4.60;4.10;;;6.20;99.90;;;;;;5077061;28;20051;-76
2021/10/23 04:38:50;;;;;;;4.22;3.63;;;6.10;99.90;;;;;;5076047;28;20350;-77
2021/10/23 04:41:16;;;;;;;4.85;3.90;;;6.10;99.90;;;;;;5076297;28;20426;-76
2021/10/23 04:43:42;;;;;;;5.85;4.15;;;6.10;99.90;;;;;;5094482;28;20029;-77
2021/10/23 04:46:08;;;;;;;5.57;4.40;;;6.10;99.90;;;;;;5075638;28;20028;-76
2021/10/23 04:48:34;;;;;;;7.18;4.40;;;6.10;99.90;;;;;;5076361;28;20020;-75
2021/10/23 04:51:00;;;;;;;5.47;4.07;;;6.00;99.90;;;;;;5076146;28;20069;-75
2021/10/23 04:53:26;;;;;;;5.80;3.95;;;6.10;99.90;;;;;;5075528;28;20024;-75
2021/10/23 04:55:51;;;;;;;5.70;4.00;;;6.00;99.90;;;;;;5076101;28;20032;-76
2021/10/23 04:58:17;;;;;;;5.50;4.20;;;6.00;99.90;;;;;;5093999;28;20484;-78
2021/10/23 05:00:42;;;;;;;6.55;4.15;;;5.90;99.90;;;;;;5093714;28;20020;-79
2021/10/23 05:03:08;;;;;;;5.10;3.65;;;6.00;99.90;;;;;;5075865;28;20573;-80
2021/10/23 05:05:33;;;;;;;5.68;4.28;;;5.90;99.90;;;;;;5076192;28;20031;-81
2021/10/23 05:07:59;;;;;;;8.13;5.03;;;5.90;99.90;;;;;;5093225;28;20024;-81
2021/10/23 05:10:25;;;;;;;7.25;4.88;;;5.80;99.90;;;;;;5093996;28;20099;-81
2021/10/23 05:12:50;;;;;;;6.22;5.22;;;5.80;99.90;;;;;;5075795;28;20016;-80
2021/10/23 05:15:16;;;;;;;7.60;5.05;;;5.80;99.90;;;;;;5093044;28;20020;-80
2021/10/23 05:17:42;;;;;;;5.20;4.30;;;5.70;99.90;;;;;;5075942;28;20064;-81
2021/10/23 05:20:08;;;;;;;4.68;4.28;;;5.70;99.90;;;;;;5093677;28;20487;-80
2021/10/23 05:22:33;;;;;;;6.00;5.15;;;5.70;99.90;;;;;;5074948;28;20028;-79
2021/10/23 05:24:59;;;;;;;5.75;4.68;;;5.70;99.90;;;;;;5093371;28;20051;-81
2021/10/23 05:27:25;;;;;;;5.63;5.07;;;5.70;99.90;;;;;;5075680;28;20089;-79
2021/10/23 05:29:50;;;;;;;5.43;4.75;;;5.70;99.90;;;;;;5071603;28;20051;-81
2021/10/23 05:32:16;;;;;;;7.47;4.60;;;5.70;99.90;;;;;;5073188;28;20386;-76
2021/10/23 05:34:42;;;;;;;4.78;4.28;;;5.70;99.90;;;;;;5073203;28;20422;-75
2021/10/23 05:37:07;;;;;;;7.10;4.63;;;5.70;99.90;;;;;;5072557;28;20029;-75
2021/10/23 05:39:33;;;;;;;6.72;5.00;;;5.70;99.90;;;;;;5073220;28;20028;-75
2021/10/23 05:41:58;;;;;;;7.00;4.90;;;5.70;99.90;;;;;;5072420;28;20032;-75
2021/10/23 05:44:24;;;;;;;4.90;4.38;;;5.70;99.90;;;;;;5072752;28;20515;-75
2021/10/23 05:46:49;;;;;;;6.88;3.90;;;5.60;99.90;;;;;;5072240;28;20558;-76
2021/10/23 05:49:15;;;;;;;6.43;4.68;;;5.60;99.90;;;;;;5071343;28;20815;-76
2021/10/23 05:51:40;;;;;;;6.00;5.30;;;5.60;99.90;;;;;;5071871;28;20021;-76
2021/10/23 05:54:06;;;;;;;5.85;4.80;;;5.60;99.90;;;;;;5072535;28;20174;-76
2021/10/23 05:56:31;;;;;;;5.97;5.18;;;5.60;99.90;;;;;;5071238;28;20040;-76
2021/10/23 05:59:10;;;;;;;7.07;4.78;;;5.60;99.90;;;;;;5071484;28;20058;-76
2021/10/23 06:01:40;;;;;;;7.13;5.88;;;5.60;99.90;;;;;;5071782;28;20074;-79
2021/10/23 06:04:06;;;;;;;5.80;4.75;;;5.50;99.90;;;;;;5070589;28;20115;-80
2021/10/23 06:06:32;;;;;;;7.00;5.97;;;5.50;99.90;;;;;;5071482;28;20048;-79
2021/10/23 06:08:57;;;;;;;5.63;4.82;;;5.50;99.90;;;;;;5072604;28;20025;-79
2021/10/23 06:11:23;;;;;;;5.72;5.03;;;5.50;99.90;;;;;;5072192;28;20488;-79
2021/10/23 06:13:50;;;;;;;6.38;5.28;;;5.50;99.90;;;;;;5071456;28;20435;-78
2021/10/23 06:16:16;;;;;;;5.82;5.18;;;5.50;99.90;;;;;;5071280;28;20031;-77
2021/10/23 06:18:42;;;;;;;6.95;5.13;;;5.50;99.90;;;;;;5068057;28;20025;-76
2021/10/23 06:21:07;;;;;;;5.28;4.75;;;5.50;99.90;;;;;;5060136;28;20488;-76
2021/10/23 06:23:33;;;;;;;4.75;4.10;;;5.50;99.90;;;;;;5070957;28;20447;-78
2021/10/23 06:25:59;;;;;;;6.10;4.50;;;5.50;99.90;;;;;;5070542;28;20048;-77
2021/10/23 06:28:25;;;;;;;5.35;4.72;;;5.50;99.90;;;;;;5070857;28;20069;-78
2021/10/23 06:30:51;;;;;;;5.28;4.18;;;5.50;99.90;;;;;;5070936;28;20453;-77
2021/10/23 06:33:19;;;;;;;5.05;4.53;;;5.50;99.90;;;;;;5070590;28;20155;-77
2021/10/23 06:35:45;;;;;;;5.80;4.75;;;5.50;99.90;;;;;;5071378;28;20115;-77
2021/10/23 06:38:10;;;;;;;4.97;4.47;;;5.50;99.90;;;;;;5070350;28;20116;-79
2021/10/23 06:40:36;;;;;;;5.53;5.00;;;5.60;99.90;;;;;;5071349;28;20114;-76
2021/10/23 06:43:02;;;;;;;6.00;4.88;;;5.50;99.90;;;;;;5072040;28;20028;-77
2021/10/23 06:45:28;;;;;;;5.20;4.70;;;5.60;99.90;;;;;;5072085;28;20027;-79
2021/10/23 06:47:56;;;;;;;6.45;4.63;;;5.70;99.90;;;;;;5071498;28;20473;-77
2021/10/23 06:50:22;;;;;;;4.93;4.45;;;5.70;99.90;;;;;;5071719;28;20056;-82
2021/10/23 06:52:48;;;;;;;9.48;5.43;;;5.80;99.90;;;;;;5071640;28;20044;-79
2021/10/23 06:55:14;;;;;;;8.32;5.38;;;5.80;99.90;;;;;;5062942;28;20464;-78
2021/10/23 06:57:40;;;;;;;6.30;5.43;;;5.90;99.90;;;;;;5051011;28;20021;-77
2021/10/23 07:00:07;;;;;;;10.63;6.13;;;6.10;99.90;;;;;;5050084;28;20103;-79
2021/10/23 07:02:38;;;;;;;5.55;4.82;;;6.10;99.90;;;;;;5050331;28;20528;-77
2021/10/23 07:05:07;;;;;;;9.05;4.22;;;6.20;99.90;;;;;;5063664;28;20514;-79
2021/10/23 07:07:33;;;;;;;8.02;5.35;;;6.30;99.90;;;;;;5070500;28;20119;-80
2021/10/23 07:09:59;;;;;;;9.27;5.07;;;6.40;99.90;;;;;;5070935;28;20116;-79
2021/10/23 07:12:24;;;;;;;11.52;5.00;;;6.50;99.90;;;;;;5070922;28;20016;-80
2021/10/23 07:14:50;;;;;;;7.65;5.22;;;6.60;99.90;;;;;;5070073;28;20027;-79
2021/10/23 07:17:16;;;;;;;10.40;5.05;;;6.70;99.90;;;;;;5070675;28;20025;-81
2021/10/23 07:19:41;;;;;;;8.77;5.32;;;6.70;99.90;;;;;;5070745;28;20529;-79
2021/10/23 07:22:07;;;;;;;9.82;5.80;;;6.80;99.90;;;;;;5069829;28;20028;-80
2021/10/23 07:24:33;;;;;;;10.05;6.38;;;6.90;99.90;;;;;;5071807;28;20064;-79
2021/10/23 07:26:58;;;;;;;12.38;6.90;;;6.90;99.90;;;;;;5070319;28;20025;-79
2021/10/23 07:29:24;;;;;;;21.27;6.53;;;6.90;99.90;;;;;;5086197;28;20127;-79
2021/10/23 07:31:49;;;;;;;15.00;7.07;;;7.00;99.90;;;;;;5074374;28;20027;-79
2021/10/23 07:34:15;;;;;;;10.35;7.28;;;7.00;99.90;;;;;;5073652;28;20036;-77
2021/10/23 07:36:41;;;;;;;9.73;8.13;;;7.10;99.90;;;;;;5091688;28;20020;-79
2021/10/23 07:39:06;;;;;;;20.33;8.10;;;7.10;99.90;;;;;;5092075;28;20028;-78
2021/10/23 07:41:32;;;;;;;17.67;7.85;;;7.10;99.90;;;;;;5073614;28;20024;-78
2021/10/23 07:43:58;;;;;;;12.18;8.20;;;7.20;99.90;;;;;;5076381;28;20086;-79
2021/10/23 07:46:25;;;;;;;9.00;8.10;;;7.30;99.90;;;;;;5077241;28;20375;-80
2021/10/23 07:48:50;;;;;;;10.05;8.18;;;7.30;99.90;;;;;;5094990;28;20050;-78
2021/10/23 07:51:16;;;;;;;12.32;8.02;;;7.40;99.90;;;;;;5076994;28;20028;-77
2021/10/23 07:53:42;;;;;;;10.43;7.20;;;7.50;99.90;;;;;;5077143;28;20024;-77
2021/10/23 07:56:07;;;;;;;9.18;7.88;;;7.50;99.90;;;;;;5076240;28;20028;-78
2021/10/23 07:58:33;;;;;;;10.90;8.02;;;7.60;99.90;;;;;;5080070;28;20099;-77
2021/10/23 08:00:59;;;;;;;8.07;6.75;;;7.60;99.90;;;;;;5073307;28;20027;-78
2021/10/23 08:03:25;;;;;;;9.18;7.72;;;7.70;99.90;;;;;;5068918;28;20036;-79
2021/10/23 08:05:50;;;;;;;8.50;7.63;;;7.70;99.90;;;;;;5071576;28;20024;-78
2021/10/23 08:08:16;;;;;;;8.23;7.40;;;7.80;99.90;;;;;;5080501;28;20035;-77
2021/10/23 08:10:42;;;;;;;7.95;7.20;;;7.90;99.90;;;;;;5056069;28;20025;-77
2021/10/23 08:13:07;;;;;;;7.95;7.15;;;7.90;99.90;;;;;;5056673;28;20376;-78
2021/10/23 08:15:34;;;;;;;10.18;7.78;;;8.00;99.90;;;;;;5057375;28;20050;-77
2021/10/23 08:18:03;;;;;;;8.27;7.47;;;8.00;99.90;;;;;;5063407;28;20025;-79
2021/10/23 08:20:35;;;;;;;8.25;7.40;;;8.10;99.90;;;;;;5076357;28;20472;-78
2021/10/23 08:23:02;;;;;;;7.47;6.78;;;8.20;99.90;;;;;;5057195;28;20051;-80
2021/10/23 08:25:27;;;;;;;8.88;7.35;;;8.20;99.90;;;;;;5062521;28;20033;-80
2021/10/23 08:27:53;;;;;;;7.72;6.90;;;8.20;99.90;;;;;;5056288;28;20023;-77
2021/10/23 08:30:19;;;;;;;8.98;6.70;;;8.30;99.90;;;;;;5075579;28;20051;-79
2021/10/23 08:32:46;;;;;;;7.75;6.85;;;8.40;99.90;;;;;;5075726;28;20020;-82
2021/10/23 08:35:17;;;;;;;8.02;7.22;;;8.40;99.90;;;;;;5062892;28;20531;-81
2021/10/23 08:37:43;;;;;;;9.15;8.25;;;8.50;99.90;;;;;;5072075;28;20031;-78
2021/10/23 08:40:11;;;;;;;7.40;6.72;;;8.50;99.90;;;;;;5077445;28;20396;-77
2021/10/23 08:42:37;;;;;;;9.77;8.65;;;8.60;99.90;;;;;;5055961;28;20025;-80
2021/10/23 08:45:08;;;;;;;7.82;7.13;;;8.60;99.90;;;;;;5073886;28;20742;-82
2021/10/23 08:47:36;;;;;;;8.82;7.78;;;8.70;99.90;;;;;;5063818;28;20502;-81
2021/10/23 08:50:07;;;;;;;9.32;7.68;;;8.70;99.90;;;;;;5065056;28;20056;-80
2021/10/23 08:52:33;;;;;;;9.77;8.45;;;8.70;99.90;;;;;;5066998;28;20016;-85
2021/10/23 08:54:59;;;;;;;8.82;7.93;;;8.80;99.90;;;;;;5073735;28;20039;-81
2021/10/23 08:57:28;;;;;;;8.65;7.75;;;8.80;99.90;;;;;;5065928;28;20090;-82
2021/10/23 08:59:58;;;;;;;7.75;7.05;;;8.90;99.90;;;;;;5058134;28;20526;-85
2021/10/23 09:02:27;;;;;;;8.57;7.63;;;8.90;99.90;;;;;;5067880;28;20020;-83
2021/10/23 09:04:55;;;;;;;9.18;7.55;;;9.00;99.90;;;;;;5058406;28;20075;-78
2021/10/23 09:07:23;;;;;;;8.77;7.88;;;9.00;99.90;;;;;;5076572;28;20052;-88
2021/10/23 09:09:55;;;;;;;7.47;6.78;;;9.10;99.90;;;;;;5055348;28;20048;-80
2021/10/23 09:12:30;;;;;;;8.68;7.50;;;9.10;99.90;;;;;;5065572;28;20055;-79
2021/10/23 09:15:02;;;;;;;7.53;6.82;;;9.20;99.90;;;;;;5074110;28;20073;-79
2021/10/23 09:17:28;;;;;;;9.70;7.13;;;9.20;99.90;;;;;;5075056;28;20476;-79
2021/10/23 09:19:55;;;;;;;7.78;6.97;;;9.30;99.90;;;;;;5067822;28;20046;-80
2021/10/23 09:22:30;;;;;;;8.75;7.95;;;9.30;99.90;;;;;;5067432;28;20012;-81
2021/10/23 09:25:14;;;;;;;9.63;7.97;;;9.40;99.90;;;;;;5066665;28;20031;-80
2021/10/23 09:28:05;;;;;;;8.40;7.57;;;9.40;99.90;;;;;;5070056;28;20051;-80
2021/10/23 09:30:31;;;;;;;7.13;6.43;;;9.40;99.90;;;;;;5061572;28;20389;-80
2021/10/23 09:33:00;;;;;;;9.43;8.52;;;9.50;99.90;;;;;;5055398;28;20286;-80
2021/10/23 09:35:26;;;;;;;11.38;8.90;;;9.50;99.90;;;;;;5062724;28;20024;-80
2021/10/23 09:37:57;;;;;;;9.82;8.85;;;9.60;99.90;;;;;;5071277;28;20437;-79
2021/10/23 09:40:30;;;;;;;9.18;8.27;;;9.60;99.90;;;;;;5055842;28;20032;-80
2021/10/23 09:43:11;;;;;;;9.38;8.10;;;9.70;99.90;;;;;;5072026;28;20016;-80
2021/10/23 09:46:07;;;;;;;9.77;7.80;;;9.80;99.90;;;;;;5075480;28;20043;-81
2021/10/23 09:48:45;;;;;;;8.55;7.75;;;9.80;99.90;;;;;;5083867;28;20064;-80
2021/10/23 09:51:11;;;;;;;9.30;8.30;;;9.90;99.90;;;;;;5070374;28;20138;-80
2021/10/23 09:53:37;;;;;;;9.85;8.95;;;9.90;99.90;;;;;;5063405;28;20551;-80
2021/10/23 09:56:08;;;;;;;9.07;7.82;;;10.00;99.90;;;;;;5074007;28;20111;-82
2021/10/23 09:58:34;;;;;;;11.03;9.90;;;10.00;99.90;;;;;;5073170;28;20498;-81
2021/10/23 10:01:00;;;;;;;10.43;8.45;;;10.10;99.90;;;;;;5078726;28;20020;-82
2021/10/23 10:03:26;;;;;;;8.57;7.68;;;10.20;99.90;;;;;;5074195;28;20533;-82
2021/10/23 10:05:56;;;;;;;10.52;8.00;;;10.20;99.90;;;;;;5070174;28;20047;-81
2021/10/23 10:08:23;;;;;;;8.98;7.45;;;10.20;99.90;;;;;;5065990;28;20028;-81
2021/10/23 10:10:50;;;;;;;10.00;7.72;;;10.30;99.90;;;;;;5066506;28;20425;-81
2021/10/23 10:13:24;;;;;;;11.23;8.57;;;10.30;99.90;;;;;;5074182;28;20115;-83
2021/10/23 10:15:54;;;;;;;10.00;8.30;;;10.40;99.90;;;;;;5069540;28;20028;-82
2021/10/23 10:18:23;;;;;;;12.10;9.82;;;10.40;99.90;;;;;;5079214;28;20051;-77
2021/10/23 10:20:54;;;;;;;9.80;8.80;;;10.40;99.90;;;;;;5066555;28;20031;-77
2021/10/23 10:23:32;;;;;;;9.40;8.50;;;10.40;99.90;;;;;;5083092;28;20422;-77
2021/10/23 10:26:33;;;;;;;9.18;8.30;;;10.50;99.90;;;;;;5073986;28;20032;-77
2021/10/23 10:29:14;;;;;;;10.25;7.55;;;10.60;99.90;;;;;;5070339;28;20556;-77
2021/10/23 10:42:50;;;;;;;10.95;9.45;;;10.50;99.90;;;;;;5089567;28;20029;-77
2021/10/23 10:45:24;;;;;;;9.75;8.75;;;10.50;99.90;;;;;;5070797;28;20036;-79
2021/10/23 10:48:13;;;;;;;9.63;8.63;;;10.40;99.90;;;;;;5072416;28;20039;-78
2021/10/23 10:50:40;;;;;;;9.23;8.43;;;10.30;99.90;;;;;;5053398;28;20033;-81
2021/10/23 10:53:16;;;;;;;9.60;8.70;;;10.30;99.90;;;;;;5065019;28;20524;-81
2021/10/23 10:55:43;;;;;;;10.35;8.98;;;10.40;99.90;;;;;;5071539;28;20032;-78
2021/10/23 10:58:10;;;;;;;12.50;9.75;;;10.40;99.90;;;;;;5073357;28;20031;-78
2021/10/23 11:00:45;;;;;;;12.38;9.90;;;10.50;99.90;;;;;;5056851;28;20033;-78
2021/10/23 11:04:05;;;;;;;12.10;9.85;;;10.60;99.90;;;;;;5053919;28;20059;-80
2021/10/23 11:06:32;;;;;;;12.77;10.25;;;10.70;99.90;;;;;;5069675;28;20039;-81
2021/10/23 11:09:15;;;;;;;11.07;9.02;;;10.80;99.90;;;;;;5057107;28;20020;-81
2021/10/23 11:11:55;;;;;;;11.68;8.95;;;10.90;99.90;;;;;;5074474;28;20464;-81
2021/10/23 11:14:23;;;;;;;10.98;9.60;;;11.00;99.90;;;;;;5069805;28;20032;-80
2021/10/23 11:16:59;;;;;;;12.43;10.68;;;11.10;99.90;;;;;;5056826;28;20021;-78
2021/10/23 11:19:37;;;;;;;12.50;10.25;;;11.20;99.90;;;;;;5070459;28;20133;-79
2021/10/23 11:22:33;;;;;;;10.18;9.15;;;11.30;99.90;;;;;;5065084;28;20032;-78
2021/10/23 11:25:05;;;;;;;12.65;10.82;;;11.40;99.90;;;;;;5071916;28;20090;-78
2021/10/23 11:27:36;;;;;;;;;;;11.50;99.90;;;;;;5076918;28;20028;-80
2021/10/23 11:30:06;;;;;;;16.08;11.30;;;11.60;99.90;;;;;;5076320;28;19924;-78
2021/10/23 11:32:40;;;;;;;11.77;10.35;;;11.70;99.90;;;;;;5094496;28;20051;-78
2021/10/23 11:35:06;;;;;;;11.95;9.85;;;11.70;99.90;;;;;;5073316;28;20035;-79
2021/10/23 11:37:32;;;;;;;12.05;9.63;;;11.80;99.90;;;;;;5077511;28;20024;-79
2021/10/23 11:40:08;;;;;;;11.70;10.50;;;11.80;99.90;;;;;;5095740;28;20380;-79
2021/10/23 11:42:35;;;;;;;15.55;11.45;;;11.90;99.90;;;;;;5077025;28;20456;-79
2021/10/23 11:45:22;;;;;;;11.40;10.20;;;11.90;99.90;;;;;;5077363;28;20097;-78
2021/10/23 11:47:49;;;;;;;9.70;8.70;;;12.00;99.90;;;;;;5066070;28;20024;-79
2021/10/23 11:50:30;;;;;;;12.30;9.45;;;12.00;99.90;;;;;;5057571;28;20069;-83
2021/10/23 11:53:00;;;;;;;9.38;8.45;;;12.10;99.90;;;;;;5062500;28;20126;-82
2021/10/23 11:55:31;;;;;;;13.45;10.05;;;12.10;99.90;;;;;;5056857;28;20024;-82
2021/10/23 11:58:00;;;;;;;10.68;9.25;;;12.10;99.90;;;;;;5070272;28;20467;-81
2021/10/23 12:00:28;;;;;;;12.23;8.95;;;12.20;99.90;;;;;;5075627;28;20179;-82
2021/10/23 12:03:03;;;;;;;12.00;9.15;;;12.20;99.90;;;;;;5075107;28;20479;-81
2021/10/23 12:05:45;;;;;;;11.73;9.93;;;12.30;99.90;;;;;;5076411;28;20036;-82
2021/10/23 12:08:24;;;;;;;11.27;9.07;;;12.30;99.90;;;;;;5058797;28;20025;-82
2021/10/23 12:11:18;;;;;;;13.50;10.15;;;12.40;99.90;;;;;;5055417;28;20024;-81
2021/10/23 12:14:04;;;;;;;10.48;8.88;;;12.50;99.90;;;;;;5056133;28;20036;-79
2021/10/23 12:16:35;;;;;;;14.77;9.80;;;12.50;99.90;;;;;;5073325;28;20022;-81
2021/10/23 12:19:22;;;;;;;13.30;10.05;;;12.50;99.90;;;;;;5076513;28;20027;-80
2021/10/23 12:21:54;;;;;;;15.95;11.50;;;12.60;99.90;;;;;;5066880;28;20021;-81
2021/10/23 12:24:22;;;;;;;;;;;12.60;99.90;;;;;;5055548;28;20048;-81
2021/10/23 12:27:23;;;;;;;11.43;10.10;;;12.60;99.90;;;;;;5059375;28;19908;-83
2021/10/23 12:30:10;;;;;;;13.82;10.73;;;12.60;99.90;;;;;;5052041;28;20053;-81
2021/10/23 12:32:43;;;;;;;14.15;11.07;;;12.60;99.90;;;;;;5064309;28;20021;-82
2021/10/23 12:35:19;;;;;;;15.52;10.45;;;12.60;99.90;;;;;;5052616;28;20033;-83
2021/10/23 12:37:57;;;;;;;12.32;10.75;;;12.60;99.90;;;;;;5055435;28;20020;-83
2021/10/23 12:40:39;;;;;;;12.02;10.48;;;12.70;99.90;;;;;;5064764;28;20027;-79
2021/10/23 12:43:09;;;;;;;12.73;11.38;;;12.70;99.90;;;;;;5073286;28;20021;-78
2021/10/23 12:45:44;;;;;;;12.82;11.35;;;12.70;99.90;;;;;;5072120;28;20552;-80
2021/10/23 12:48:12;;;;;;;14.52;11.75;;;12.70;99.90;;;;;;5063351;28;20033;-84
2021/10/23 12:50:39;;;;;;;14.70;12.75;;;12.80;99.90;;;;;;5060582;28;20472;-85
2021/10/23 12:53:05;;;;;;;15.52;12.77;;;12.80;99.90;;;;;;5066173;28;20064;-82
2021/10/23 12:55:31;;;;;;;15.35;12.95;;;12.80;99.90;;;;;;5072859;28;20081;-82
2021/10/23 12:57:57;;;;;;;13.70;11.82;;;12.80;99.90;;;;;;5071757;28;20032;-84
2021/10/23 13:00:24;;;;;;;13.45;12.05;;;12.80;99.90;;;;;;5068146;28;20492;-77
2021/10/23 13:02:50;;;;;;;15.23;12.52;;;12.90;99.90;;;;;;5071811;28;20090;-80
2021/10/23 13:05:16;;;;;;;14.77;12.95;;;12.90;99.90;;;;;;5052215;28;20033;-81
2021/10/23 13:07:41;;;;;;;17.20;13.27;;;12.90;99.90;;;;;;5056086;28;20432;-79
2021/10/23 13:10:10;;;;;;;19.60;15.00;;;12.90;99.90;;;;;;5052385;28;20056;-85